sensor_id;sensor_type;location;lat;lon;timestamp;P1;durP1;ratioP1;P2;durP2;ratioP2
17259;SDS011;8746;49.230;9.220;2022-11-02T00:00:18;5.10;;;3.33;;
17259;SDS011;8746;49.230;9.220;2022-11-02T00:02:44;4.47;;;3.80;;
17259;SDS011;8746;49.230;9.220;2022-11-02T00:05:12;5.10;;;3.23;;
17259;SDS011;8746;49.230;9.220;2022-11-02T00:07:38;5.07;;;3.67;;
17259;SDS011;8746;49.230;9.220;2022-11-02T00:10:04;4.43;;;3.70;;
17259;SDS011;8746;49.230;9.220;2022-11-02T00:12:31;5.20;;;4.17;;
17259;SDS011;8746;49.230;9.220;2022-11-02T00:14:56;5.07;;;3.90;;
17259;SDS011;8746;49.230;9.220;2022-11-02T00:17:21;5.57;;;4.10;;
17259;SDS011;8746;49.230;9.220;2022-11-02T00:19:47;4.93;;;3.87;;
17259;SDS011;8746;49.230;9.220;2022-11-02T00:22:13;6.93;;;4.70;;
17259;SDS011;8746;49.230;9.220;2022-11-02T00:24:38;6.70;;;4.73;;
17259;SDS011;8746;49.230;9.220;2022-11-02T00:27:04;8.60;;;5.13;;
17259;SDS011;8746;49.230;9.220;2022-11-02T00:29:30;5.73;;;4.40;;
17259;SDS011;8746;49.230;9.220;2022-11-02T00:31:55;7.47;;;5.30;;
17259;SDS011;8746;49.230;9.220;2022-11-02T00:34:20;10.63;;;6.43;;
17259;SDS011;8746;49.230;9.220;2022-11-02T00:36:46;10.03;;;6.00;;
17259;SDS011;8746;49.230;9.220;2022-11-02T00:39:11;9.90;;;6.43;;
17259;SDS011;8746;49.230;9.220;2022-11-02T00:41:36;10.77;;;6.40;;
17259;SDS011;8746;49.230;9.220;2022-11-02T00:44:02;11.93;;;6.27;;
17259;SDS011;8746;49.230;9.220;2022-11-02T00:46:27;8.97;;;5.67;;
17259;SDS011;8746;49.230;9.220;2022-11-02T00:48:53;9.23;;;6.33;;
17259;SDS011;8746;49.230;9.220;2022-11-02T00:51:18;7.20;;;5.50;;
17259;SDS011;8746;49.230;9.220;2022-11-02T00:53:43;8.67;;;4.67;;
17259;SDS011;8746;49.230;9.220;2022-11-02T00:56:09;9.40;;;5.53;;
17259;SDS011;8746;49.230;9.220;2022-11-02T00:58:34;7.77;;;5.60;;
17259;SDS011;8746;49.230;9.220;2022-11-02T01:01:03;6.97;;;5.07;;
17259;SDS011;8746;49.230;9.220;2022-11-02T01:03:29;7.10;;;4.50;;
17259;SDS011;8746;49.230;9.220;2022-11-02T01:05:54;6.63;;;4.57;;
17259;SDS011;8746;49.230;9.220;2022-11-02T01:08:19;5.80;;;4.70;;
17259;SDS011;8746;49.230;9.220;2022-11-02T01:10:45;5.53;;;4.30;;
17259;SDS011;8746;49.230;9.220;2022-11-02T01:13:10;9.60;;;4.70;;
17259;SDS011;8746;49.230;9.220;2022-11-02T01:15:36;5.27;;;4.03;;
17259;SDS011;8746;49.230;9.220;2022-11-02T01:18:01;4.80;;;4.30;;
17259;SDS011;8746;49.230;9.220;2022-11-02T01:20:27;6.13;;;4.03;;
17259;SDS011;8746;49.230;9.220;2022-11-02T01:22:52;5.93;;;4.27;;
17259;SDS011;8746;49.230;9.220;2022-11-02T01:25:17;7.33;;;4.87;;
17259;SDS011;8746;49.230;9.220;2022-11-02T01:27:43;6.90;;;4.23;;
17259;SDS011;8746;49.230;9.220;2022-11-02T01:30:08;6.80;;;4.13;;
17259;SDS011;8746;49.230;9.220;2022-11-02T01:32:34;5.90;;;4.50;;
17259;SDS011;8746;49.230;9.220;2022-11-02T01:35:00;5.03;;;3.77;;
17259;SDS011;8746;49.230;9.220;2022-11-02T01:37:26;5.73;;;4.37;;
17259;SDS011;8746;49.230;9.220;2022-11-02T01:39:52;5.47;;;4.33;;
17259;SDS011;8746;49.230;9.220;2022-11-02T01:42:21;5.63;;;3.67;;
17259;SDS011;8746;49.230;9.220;2022-11-02T01:44:51;4.93;;;4.10;;
17259;SDS011;8746;49.230;9.220;2022-11-02T01:49:43;5.07;;;3.70;;
17259;SDS011;8746;49.230;9.220;2022-11-02T01:52:12;5.43;;;3.40;;
17259;SDS011;8746;49.230;9.220;2022-11-02T01:54:43;4.03;;;3.27;;
17259;SDS011;8746;49.230;9.220;2022-11-02T01:57:13;4.13;;;3.60;;
17259;SDS011;8746;49.230;9.220;2022-11-02T02:02:20;3.53;;;3.00;;
17259;SDS011;8746;49.230;9.220;2022-11-02T02:04:50;2.90;;;2.70;;
17259;SDS011;8746;49.230;9.220;2022-11-02T02:07:19;4.70;;;3.17;;
17259;SDS011;8746;49.230;9.220;2022-11-02T02:09:48;5.87;;;3.37;;
17259;SDS011;8746;49.230;9.220;2022-11-02T02:12:14;3.87;;;3.13;;
17259;SDS011;8746;49.230;9.220;2022-11-02T02:14:39;3.13;;;2.67;;
17259;SDS011;8746;49.230;9.220;2022-11-02T02:33:47;4.10;;;2.77;;
17259;SDS011;8746;49.230;9.220;2022-11-02T02:36:21;2.87;;;2.60;;
17259;SDS011;8746;49.230;9.220;2022-11-02T02:39:01;3.47;;;2.63;;
17259;SDS011;8746;49.230;9.220;2022-11-02T02:41:41;3.73;;;2.83;;
17259;SDS011;8746;49.230;9.220;2022-11-02T02:44:21;3.90;;;3.03;;
17259;SDS011;8746;49.230;9.220;2022-11-02T02:46:52;3.70;;;3.30;;
17259;SDS011;8746;49.230;9.220;2022-11-02T02:49:43;3.63;;;3.20;;
17259;SDS011;8746;49.230;9.220;2022-11-02T02:52:14;2.90;;;2.70;;
17259;SDS011;8746;49.230;9.220;2022-11-02T02:54:42;3.37;;;2.67;;
17259;SDS011;8746;49.230;9.220;2022-11-02T02:57:13;3.27;;;2.77;;
17259;SDS011;8746;49.230;9.220;2022-11-02T02:59:42;3.60;;;2.83;;
17259;SDS011;8746;49.230;9.220;2022-11-02T03:02:12;3.20;;;2.90;;
17259;SDS011;8746;49.230;9.220;2022-11-02T03:04:43;5.60;;;2.63;;
17259;SDS011;8746;49.230;9.220;2022-11-02T03:07:08;2.80;;;2.60;;
17259;SDS011;8746;49.230;9.220;2022-11-02T03:15:25;3.10;;;2.37;;
17259;SDS011;8746;49.230;9.220;2022-11-02T03:18:15;3.63;;;2.40;;
17259;SDS011;8746;49.230;9.220;2022-11-02T03:23:34;2.40;;;2.20;;
17259;SDS011;8746;49.230;9.220;2022-11-02T03:26:05;3.63;;;3.00;;
17259;SDS011;8746;49.230;9.220;2022-11-02T03:33:54;3.30;;;3.00;;
17259;SDS011;8746;49.230;9.220;2022-11-02T03:36:27;3.77;;;2.73;;
17259;SDS011;8746;49.230;9.220;2022-11-02T03:39:07;3.43;;;2.70;;
17259;SDS011;8746;49.230;9.220;2022-11-02T03:41:38;3.60;;;3.00;;
17259;SDS011;8746;49.230;9.220;2022-11-02T03:44:09;4.00;;;2.57;;
17259;SDS011;8746;49.230;9.220;2022-11-02T03:46:39;3.57;;;3.03;;
17259;SDS011;8746;49.230;9.220;2022-11-02T03:49:06;3.80;;;2.77;;
17259;SDS011;8746;49.230;9.220;2022-11-02T03:51:36;4.40;;;2.70;;
17259;SDS011;8746;49.230;9.220;2022-11-02T03:54:05;3.17;;;2.63;;
17259;SDS011;8746;49.230;9.220;2022-11-02T03:56:38;3.27;;;2.83;;
17259;SDS011;8746;49.230;9.220;2022-11-02T03:59:06;2.70;;;2.50;;
17259;SDS011;8746;49.230;9.220;2022-11-02T04:01:35;2.93;;;2.37;;
17259;SDS011;8746;49.230;9.220;2022-11-02T04:04:05;3.27;;;2.70;;
17259;SDS011;8746;49.230;9.220;2022-11-02T04:06:31;4.20;;;2.90;;
17259;SDS011;8746;49.230;9.220;2022-11-02T04:08:57;3.40;;;2.67;;
17259;SDS011;8746;49.230;9.220;2022-11-02T04:11:22;3.77;;;2.70;;
17259;SDS011;8746;49.230;9.220;2022-11-02T04:14:06;3.53;;;3.23;;
17259;SDS011;8746;49.230;9.220;2022-11-02T04:16:52;2.53;;;2.33;;
17259;SDS011;8746;49.230;9.220;2022-11-02T04:19:40;3.93;;;2.80;;
17259;SDS011;8746;49.230;9.220;2022-11-02T04:22:05;3.07;;;2.80;;
17259;SDS011;8746;49.230;9.220;2022-11-02T04:24:50;3.07;;;2.77;;
17259;SDS011;8746;49.230;9.220;2022-11-02T04:27:34;3.30;;;2.63;;
17259;SDS011;8746;49.230;9.220;2022-11-02T04:30:00;2.67;;;2.47;;
17259;SDS011;8746;49.230;9.220;2022-11-02T04:32:25;2.80;;;2.50;;
17259;SDS011;8746;49.230;9.220;2022-11-02T04:35:09;3.80;;;2.57;;
17259;SDS011;8746;49.230;9.220;2022-11-02T04:37:38;3.33;;;3.03;;
17259;SDS011;8746;49.230;9.220;2022-11-02T04:40:23;3.73;;;2.33;;
17259;SDS011;8746;49.230;9.220;2022-11-02T04:42:49;3.27;;;2.50;;
17259;SDS011;8746;49.230;9.220;2022-11-02T04:45:14;2.87;;;2.27;;
17259;SDS011;8746;49.230;9.220;2022-11-02T04:47:40;3.20;;;2.70;;
17259;SDS011;8746;49.230;9.220;2022-11-02T04:50:05;2.83;;;2.20;;
17259;SDS011;8746;49.230;9.220;2022-11-02T04:52:31;2.90;;;2.60;;
17259;SDS011;8746;49.230;9.220;2022-11-02T04:54:56;3.03;;;2.40;;
17259;SDS011;8746;49.230;9.220;2022-11-02T04:57:22;3.67;;;2.70;;
17259;SDS011;8746;49.230;9.220;2022-11-02T04:59:47;3.03;;;2.47;;
17259;SDS011;8746;49.230;9.220;2022-11-02T05:02:12;2.77;;;2.23;;
17259;SDS011;8746;49.230;9.220;2022-11-02T05:04:38;2.97;;;2.67;;
17259;SDS011;8746;49.230;9.220;2022-11-02T05:07:03;3.23;;;2.57;;
17259;SDS011;8746;49.230;9.220;2022-11-02T05:09:31;3.60;;;2.43;;
17259;SDS011;8746;49.230;9.220;2022-11-02T05:11:57;2.73;;;2.43;;
17259;SDS011;8746;49.230;9.220;2022-11-02T05:14:22;2.67;;;2.47;;
17259;SDS011;8746;49.230;9.220;2022-11-02T05:16:47;4.30;;;2.57;;
17259;SDS011;8746;49.230;9.220;2022-11-02T05:19:13;4.03;;;2.60;;
17259;SDS011;8746;49.230;9.220;2022-11-02T05:21:38;2.30;;;2.10;;
17259;SDS011;8746;49.230;9.220;2022-11-02T05:24:04;3.93;;;2.27;;
17259;SDS011;8746;49.230;9.220;2022-11-02T05:26:29;2.97;;;2.17;;
17259;SDS011;8746;49.230;9.220;2022-11-02T05:28:55;3.67;;;2.10;;
17259;SDS011;8746;49.230;9.220;2022-11-02T05:31:20;3.50;;;2.20;;
17259;SDS011;8746;49.230;9.220;2022-11-02T05:33:46;5.70;;;2.00;;
17259;SDS011;8746;49.230;9.220;2022-11-02T05:36:11;3.40;;;2.27;;
17259;SDS011;8746;49.230;9.220;2022-11-02T05:38:37;3.37;;;2.00;;
17259;SDS011;8746;49.230;9.220;2022-11-02T05:41:02;3.20;;;2.10;;
17259;SDS011;8746;49.230;9.220;2022-11-02T05:43:27;6.43;;;2.40;;
17259;SDS011;8746;49.230;9.220;2022-11-02T05:45:54;2.17;;;1.97;;
17259;SDS011;8746;49.230;9.220;2022-11-02T05:48:21;1.93;;;1.83;;
17259;SDS011;8746;49.230;9.220;2022-11-02T05:50:47;2.80;;;1.97;;
17259;SDS011;8746;49.230;9.220;2022-11-02T05:53:12;2.00;;;1.80;;
17259;SDS011;8746;49.230;9.220;2022-11-02T05:55:38;2.80;;;2.10;;
17259;SDS011;8746;49.230;9.220;2022-11-02T05:58:03;3.57;;;1.90;;
17259;SDS011;8746;49.230;9.220;2022-11-02T06:00:29;5.40;;;1.80;;
17259;SDS011;8746;49.230;9.220;2022-11-02T06:02:55;3.60;;;2.00;;
17259;SDS011;8746;49.230;9.220;2022-11-02T06:05:21;2.00;;;1.80;;
17259;SDS011;8746;49.230;9.220;2022-11-02T06:07:47;6.97;;;1.83;;
17259;SDS011;8746;49.230;9.220;2022-11-02T06:10:12;3.70;;;1.90;;
17259;SDS011;8746;49.230;9.220;2022-11-02T06:12:38;3.37;;;1.93;;
17259;SDS011;8746;49.230;9.220;2022-11-02T06:15:03;2.27;;;1.93;;
17259;SDS011;8746;49.230;9.220;2022-11-02T06:17:35;3.20;;;2.10;;
17259;SDS011;8746;49.230;9.220;2022-11-02T06:20:04;3.50;;;1.87;;
17259;SDS011;8746;49.230;9.220;2022-11-02T06:22:30;3.73;;;1.87;;
17259;SDS011;8746;49.230;9.220;2022-11-02T06:24:55;3.77;;;1.70;;
17259;SDS011;8746;49.230;9.220;2022-11-02T06:27:21;2.93;;;1.70;;
17259;SDS011;8746;49.230;9.220;2022-11-02T06:29:46;4.40;;;1.80;;
17259;SDS011;8746;49.230;9.220;2022-11-02T06:32:11;2.97;;;1.87;;
17259;SDS011;8746;49.230;9.220;2022-11-02T06:34:37;5.23;;;1.67;;
17259;SDS011;8746;49.230;9.220;2022-11-02T06:37:02;1.57;;;1.47;;
17259;SDS011;8746;49.230;9.220;2022-11-02T06:39:27;4.57;;;2.07;;
17259;SDS011;8746;49.230;9.220;2022-11-02T06:41:53;3.43;;;1.80;;
17259;SDS011;8746;49.230;9.220;2022-11-02T06:44:18;4.67;;;1.60;;
17259;SDS011;8746;49.230;9.220;2022-11-02T06:46:43;7.00;;;1.77;;
17259;SDS011;8746;49.230;9.220;2022-11-02T06:49:08;5.90;;;2.10;;
17259;SDS011;8746;49.230;9.220;2022-11-02T06:51:34;3.67;;;1.50;;
17259;SDS011;8746;49.230;9.220;2022-11-02T06:53:59;4.60;;;1.47;;
17259;SDS011;8746;49.230;9.220;2022-11-02T06:56:24;3.50;;;1.40;;
17259;SDS011;8746;49.230;9.220;2022-11-02T06:58:50;3.97;;;1.27;;
17259;SDS011;8746;49.230;9.220;2022-11-02T07:01:15;3.70;;;1.43;;
17259;SDS011;8746;49.230;9.220;2022-11-02T07:03:40;4.47;;;1.37;;
17259;SDS011;8746;49.230;9.220;2022-11-02T07:06:06;4.33;;;1.50;;
17259;SDS011;8746;49.230;9.220;2022-11-02T07:08:31;2.73;;;1.20;;
17259;SDS011;8746;49.230;9.220;2022-11-02T07:10:57;5.90;;;1.67;;
17259;SDS011;8746;49.230;9.220;2022-11-02T07:13:22;1.23;;;1.07;;
17259;SDS011;8746;49.230;9.220;2022-11-02T07:15:51;5.07;;;1.53;;
17259;SDS011;8746;49.230;9.220;2022-11-02T07:18:17;2.57;;;1.37;;
17259;SDS011;8746;49.230;9.220;2022-11-02T07:20:43;2.93;;;1.53;;
17259;SDS011;8746;49.230;9.220;2022-11-02T07:23:08;4.33;;;1.70;;
17259;SDS011;8746;49.230;9.220;2022-11-02T07:25:34;3.70;;;1.40;;
17259;SDS011;8746;49.230;9.220;2022-11-02T07:28:00;4.57;;;1.40;;
17259;SDS011;8746;49.230;9.220;2022-11-02T07:30:27;6.53;;;1.43;;
17259;SDS011;8746;49.230;9.220;2022-11-02T07:32:53;4.87;;;2.07;;
17259;SDS011;8746;49.230;9.220;2022-11-02T07:35:18;1.87;;;1.10;;
17259;SDS011;8746;49.230;9.220;2022-11-02T07:37:46;1.90;;;1.60;;
17259;SDS011;8746;49.230;9.220;2022-11-02T07:40:21;1.53;;;1.10;;
17259;SDS011;8746;49.230;9.220;2022-11-02T07:42:46;4.53;;;1.50;;
17259;SDS011;8746;49.230;9.220;2022-11-02T07:45:12;4.07;;;1.40;;
17259;SDS011;8746;49.230;9.220;2022-11-02T07:47:41;4.23;;;1.40;;
17259;SDS011;8746;49.230;9.220;2022-11-02T07:50:07;3.63;;;1.13;;
17259;SDS011;8746;49.230;9.220;2022-11-02T07:52:33;5.03;;;1.30;;
17259;SDS011;8746;49.230;9.220;2022-11-02T07:54:58;2.20;;;1.50;;
17259;SDS011;8746;49.230;9.220;2022-11-02T07:57:23;5.50;;;1.40;;
17259;SDS011;8746;49.230;9.220;2022-11-02T07:59:49;2.33;;;1.40;;
17259;SDS011;8746;49.230;9.220;2022-11-02T08:02:14;4.50;;;1.60;;
17259;SDS011;8746;49.230;9.220;2022-11-02T08:04:40;3.73;;;1.43;;
17259;SDS011;8746;49.230;9.220;2022-11-02T08:07:05;3.47;;;1.30;;
17259;SDS011;8746;49.230;9.220;2022-11-02T08:09:31;3.63;;;1.20;;
17259;SDS011;8746;49.230;9.220;2022-11-02T08:11:56;4.83;;;1.73;;
17259;SDS011;8746;49.230;9.220;2022-11-02T08:14:21;3.27;;;1.30;;
17259;SDS011;8746;49.230;9.220;2022-11-02T08:16:49;2.53;;;1.47;;
17259;SDS011;8746;49.230;9.220;2022-11-02T08:19:16;6.40;;;1.43;;
17259;SDS011;8746;49.230;9.220;2022-11-02T08:21:41;4.17;;;1.50;;
17259;SDS011;8746;49.230;9.220;2022-11-02T08:24:06;2.87;;;1.30;;
17259;SDS011;8746;49.230;9.220;2022-11-02T08:26:32;3.43;;;1.40;;
17259;SDS011;8746;49.230;9.220;2022-11-02T08:28:57;4.07;;;1.30;;
17259;SDS011;8746;49.230;9.220;2022-11-02T08:31:23;4.70;;;1.60;;
17259;SDS011;8746;49.230;9.220;2022-11-02T08:33:48;1.90;;;1.30;;
17259;SDS011;8746;49.230;9.220;2022-11-02T08:36:14;5.23;;;1.70;;
17259;SDS011;8746;49.230;9.220;2022-11-02T08:38:39;3.97;;;1.07;;
17259;SDS011;8746;49.230;9.220;2022-11-02T08:41:05;2.13;;;1.47;;
17259;SDS011;8746;49.230;9.220;2022-11-02T08:43:30;4.83;;;1.57;;
17259;SDS011;8746;49.230;9.220;2022-11-02T08:45:56;2.57;;;1.40;;
17259;SDS011;8746;49.230;9.220;2022-11-02T08:48:23;7.30;;;1.70;;
17259;SDS011;8746;49.230;9.220;2022-11-02T08:50:49;3.40;;;1.57;;
17259;SDS011;8746;49.230;9.220;2022-11-02T08:53:14;7.00;;;1.50;;
17259;SDS011;8746;49.230;9.220;2022-11-02T08:55:40;5.80;;;1.57;;
17259;SDS011;8746;49.230;9.220;2022-11-02T08:58:05;3.37;;;1.60;;
17259;SDS011;8746;49.230;9.220;2022-11-02T09:00:31;2.13;;;1.13;;
17259;SDS011;8746;49.230;9.220;2022-11-02T09:05:28;1.93;;;1.13;;
17259;SDS011;8746;49.230;9.220;2022-11-02T09:08:05;3.33;;;1.13;;
17259;SDS011;8746;49.230;9.220;2022-11-02T09:10:33;4.00;;;1.57;;
17259;SDS011;8746;49.230;9.220;2022-11-02T09:13:00;5.13;;;1.57;;
17259;SDS011;8746;49.230;9.220;2022-11-02T09:15:28;4.60;;;1.20;;
17259;SDS011;8746;49.230;9.220;2022-11-02T09:17:54;2.87;;;1.27;;
17259;SDS011;8746;49.230;9.220;2022-11-02T09:20:20;2.67;;;1.40;;
17259;SDS011;8746;49.230;9.220;2022-11-02T09:22:46;4.80;;;1.50;;
17259;SDS011;8746;49.230;9.220;2022-11-02T09:25:13;4.73;;;1.30;;
17259;SDS011;8746;49.230;9.220;2022-11-02T09:27:39;7.00;;;1.57;;
17259;SDS011;8746;49.230;9.220;2022-11-02T09:30:06;1.73;;;1.13;;
17259;SDS011;8746;49.230;9.220;2022-11-02T09:32:32;4.37;;;1.30;;
17259;SDS011;8746;49.230;9.220;2022-11-02T09:35:01;1.33;;;1.20;;
17259;SDS011;8746;49.230;9.220;2022-11-02T09:37:28;5.63;;;1.20;;
17259;SDS011;8746;49.230;9.220;2022-11-02T09:39:54;6.03;;;1.53;;
17259;SDS011;8746;49.230;9.220;2022-11-02T09:42:21;6.13;;;1.50;;
17259;SDS011;8746;49.230;9.220;2022-11-02T09:44:57;2.93;;;1.43;;
17259;SDS011;8746;49.230;9.220;2022-11-02T09:47:25;6.67;;;1.50;;
17259;SDS011;8746;49.230;9.220;2022-11-02T09:49:54;3.87;;;1.60;;
17259;SDS011;8746;49.230;9.220;2022-11-02T09:52:55;3.37;;;1.43;;
17259;SDS011;8746;49.230;9.220;2022-11-02T09:55:25;2.40;;;1.20;;
17259;SDS011;8746;49.230;9.220;2022-11-02T09:57:59;3.03;;;1.17;;
17259;SDS011;8746;49.230;9.220;2022-11-02T10:00:32;3.60;;;1.30;;
17259;SDS011;8746;49.230;9.220;2022-11-02T10:14:26;3.27;;;1.27;;
17259;SDS011;8746;49.230;9.220;2022-11-02T10:17:03;4.33;;;1.30;;
17259;SDS011;8746;49.230;9.220;2022-11-02T10:19:38;4.03;;;1.43;;
17259;SDS011;8746;49.230;9.220;2022-11-02T10:22:09;2.43;;;1.20;;
17259;SDS011;8746;49.230;9.220;2022-11-02T10:24:40;2.40;;;1.20;;
17259;SDS011;8746;49.230;9.220;2022-11-02T10:32:16;4.27;;;1.17;;
17259;SDS011;8746;49.230;9.220;2022-11-02T10:34:42;3.57;;;1.50;;
17259;SDS011;8746;49.230;9.220;2022-11-02T10:42:42;3.60;;;1.23;;
17259;SDS011;8746;49.230;9.220;2022-11-02T10:45:25;2.67;;;1.13;;
17259;SDS011;8746;49.230;9.220;2022-11-02T10:53:38;5.80;;;1.40;;
17259;SDS011;8746;49.230;9.220;2022-11-02T10:58:38;7.03;;;1.80;;
17259;SDS011;8746;49.230;9.220;2022-11-02T11:01:10;2.17;;;1.33;;
17259;SDS011;8746;49.230;9.220;2022-11-02T11:03:52;3.83;;;1.37;;
17259;SDS011;8746;49.230;9.220;2022-11-02T11:06:41;5.77;;;1.33;;
17259;SDS011;8746;49.230;9.220;2022-11-02T11:14:22;2.73;;;1.10;;
17259;SDS011;8746;49.230;9.220;2022-11-02T11:16:53;4.50;;;1.37;;
17259;SDS011;8746;49.230;9.220;2022-11-02T11:21:49;1.33;;;1.10;;
17259;SDS011;8746;49.230;9.220;2022-11-02T11:24:22;3.20;;;1.10;;
17259;SDS011;8746;49.230;9.220;2022-11-02T11:29:37;5.47;;;1.37;;
17259;SDS011;8746;49.230;9.220;2022-11-02T11:32:06;3.57;;;1.30;;
17259;SDS011;8746;49.230;9.220;2022-11-02T11:34:39;10.90;;;1.30;;
17259;SDS011;8746;49.230;9.220;2022-11-02T11:37:07;3.17;;;1.37;;
17259;SDS011;8746;49.230;9.220;2022-11-02T11:39:35;5.20;;;1.20;;
17259;SDS011;8746;49.230;9.220;2022-11-02T11:42:03;3.73;;;1.27;;
17259;SDS011;8746;49.230;9.220;2022-11-02T11:44:30;6.13;;;1.50;;
17259;SDS011;8746;49.230;9.220;2022-11-02T11:46:56;1.63;;;1.00;;
17259;SDS011;8746;49.230;9.220;2022-11-02T11:51:54;6.13;;;1.43;;
17259;SDS011;8746;49.230;9.220;2022-11-02T11:57:36;3.93;;;1.50;;
17259;SDS011;8746;49.230;9.220;2022-11-02T11:59:52;3.53;;;1.33;;
17259;SDS011;8746;49.230;9.220;2022-11-02T12:02:21;5.90;;;1.47;;
17259;SDS011;8746;49.230;9.220;2022-11-02T12:04:51;4.73;;;1.67;;
17259;SDS011;8746;49.230;9.220;2022-11-02T12:07:33;2.43;;;1.00;;
17259;SDS011;8746;49.230;9.220;2022-11-02T12:10:35;3.70;;;1.00;;
17259;SDS011;8746;49.230;9.220;2022-11-02T12:21:12;2.10;;;0.93;;
17259;SDS011;8746;49.230;9.220;2022-11-02T12:26:30;3.53;;;1.20;;
17259;SDS011;8746;49.230;9.220;2022-11-02T12:32:15;4.23;;;1.10;;
17259;SDS011;8746;49.230;9.220;2022-11-02T12:40:38;2.60;;;0.80;;
17259;SDS011;8746;49.230;9.220;2022-11-02T12:45:50;2.57;;;1.30;;
17259;SDS011;8746;49.230;9.220;2022-11-02T12:48:38;7.33;;;1.07;;
17259;SDS011;8746;49.230;9.220;2022-11-02T12:51:15;3.43;;;1.07;;
17259;SDS011;8746;49.230;9.220;2022-11-02T12:53:56;6.00;;;1.07;;
17259;SDS011;8746;49.230;9.220;2022-11-02T12:56:25;5.30;;;1.40;;
17259;SDS011;8746;49.230;9.220;2022-11-02T12:58:56;2.20;;;1.00;;
17259;SDS011;8746;49.230;9.220;2022-11-02T13:06:29;3.57;;;1.10;;
17259;SDS011;8746;49.230;9.220;2022-11-02T13:09:01;3.57;;;1.30;;
17259;SDS011;8746;49.230;9.220;2022-11-02T13:11:41;1.40;;;0.90;;
17259;SDS011;8746;49.230;9.220;2022-11-02T13:14:11;2.77;;;1.10;;
17259;SDS011;8746;49.230;9.220;2022-11-02T13:16:42;5.87;;;1.40;;
17259;SDS011;8746;49.230;9.220;2022-11-02T13:19:19;5.30;;;1.10;;
17259;SDS011;8746;49.230;9.220;2022-11-02T13:21:54;3.80;;;1.00;;
17259;SDS011;8746;49.230;9.220;2022-11-02T13:24:23;8.80;;;1.50;;
17259;SDS011;8746;49.230;9.220;2022-11-02T13:27:01;4.00;;;1.30;;
17259;SDS011;8746;49.230;9.220;2022-11-02T13:29:34;5.10;;;1.33;;
17259;SDS011;8746;49.230;9.220;2022-11-02T13:32:07;3.43;;;1.27;;
17259;SDS011;8746;49.230;9.220;2022-11-02T13:34:45;6.00;;;1.20;;
17259;SDS011;8746;49.230;9.220;2022-11-02T13:37:22;3.43;;;1.47;;
17259;SDS011;8746;49.230;9.220;2022-11-02T13:39:54;3.07;;;1.00;;
17259;SDS011;8746;49.230;9.220;2022-11-02T13:48:28;2.20;;;0.97;;
17259;SDS011;8746;49.230;9.220;2022-11-02T13:50:47;1.90;;;1.00;;
17259;SDS011;8746;49.230;9.220;2022-11-02T13:53:18;3.57;;;1.10;;
17259;SDS011;8746;49.230;9.220;2022-11-02T13:55:56;3.63;;;1.20;;
17259;SDS011;8746;49.230;9.220;2022-11-02T13:58:33;4.60;;;1.23;;
17259;SDS011;8746;49.230;9.220;2022-11-02T14:01:02;2.00;;;1.17;;
17259;SDS011;8746;49.230;9.220;2022-11-02T14:06:17;4.07;;;1.17;;
17259;SDS011;8746;49.230;9.220;2022-11-02T14:11:25;2.63;;;1.20;;
17259;SDS011;8746;49.230;9.220;2022-11-02T14:19:12;2.07;;;0.90;;
17259;SDS011;8746;49.230;9.220;2022-11-02T14:27:43;1.80;;;1.37;;
17259;SDS011;8746;49.230;9.220;2022-11-02T14:37:50;5.93;;;1.83;;
17259;SDS011;8746;49.230;9.220;2022-11-02T14:43:19;6.37;;;1.37;;
17259;SDS011;8746;49.230;9.220;2022-11-02T14:49:16;4.90;;;1.17;;
17259;SDS011;8746;49.230;9.220;2022-11-02T14:51:53;6.83;;;1.50;;
17259;SDS011;8746;49.230;9.220;2022-11-02T14:54:24;6.47;;;1.47;;
17259;SDS011;8746;49.230;9.220;2022-11-02T14:56:53;2.20;;;1.00;;
17259;SDS011;8746;49.230;9.220;2022-11-02T15:02:18;3.70;;;1.00;;
17259;SDS011;8746;49.230;9.220;2022-11-02T15:04:48;2.63;;;1.03;;
17259;SDS011;8746;49.230;9.220;2022-11-02T15:07:19;2.60;;;1.07;;
17259;SDS011;8746;49.230;9.220;2022-11-02T15:09:59;2.83;;;1.37;;
17259;SDS011;8746;49.230;9.220;2022-11-02T15:12:33;3.33;;;0.97;;
17259;SDS011;8746;49.230;9.220;2022-11-02T15:20:19;3.43;;;1.80;;
17259;SDS011;8746;49.230;9.220;2022-11-02T15:22:43;2.37;;;1.33;;
17259;SDS011;8746;49.230;9.220;2022-11-02T15:27:48;4.33;;;1.57;;
17259;SDS011;8746;49.230;9.220;2022-11-02T15:30:18;2.77;;;1.20;;
17259;SDS011;8746;49.230;9.220;2022-11-02T15:32:46;3.83;;;1.10;;
17259;SDS011;8746;49.230;9.220;2022-11-02T15:35:16;2.07;;;1.17;;
17259;SDS011;8746;49.230;9.220;2022-11-02T15:37:45;1.23;;;0.80;;
17259;SDS011;8746;49.230;9.220;2022-11-02T15:40:17;1.67;;;1.00;;
17259;SDS011;8746;49.230;9.220;2022-11-02T15:43:00;4.80;;;1.10;;
17259;SDS011;8746;49.230;9.220;2022-11-02T15:45:45;3.97;;;1.20;;
17259;SDS011;8746;49.230;9.220;2022-11-02T15:48:25;6.77;;;1.30;;
17259;SDS011;8746;49.230;9.220;2022-11-02T15:51:19;3.27;;;1.30;;
17259;SDS011;8746;49.230;9.220;2022-11-02T15:54:00;2.07;;;1.30;;
17259;SDS011;8746;49.230;9.220;2022-11-02T16:02:02;4.47;;;1.60;;
17259;SDS011;8746;49.230;9.220;2022-11-02T16:04:36;2.87;;;1.40;;
17259;SDS011;8746;49.230;9.220;2022-11-02T16:07:03;3.67;;;1.40;;
17259;SDS011;8746;49.230;9.220;2022-11-02T16:09:34;1.67;;;1.57;;
17259;SDS011;8746;49.230;9.220;2022-11-02T16:12:18;4.47;;;1.80;;
17259;SDS011;8746;49.230;9.220;2022-11-02T16:14:49;5.00;;;1.77;;
17259;SDS011;8746;49.230;9.220;2022-11-02T16:17:33;3.80;;;1.67;;
17259;SDS011;8746;49.230;9.220;2022-11-02T16:22:45;4.60;;;1.70;;
17259;SDS011;8746;49.230;9.220;2022-11-02T16:25:15;2.20;;;1.47;;
17259;SDS011;8746;49.230;9.220;2022-11-02T16:27:44;2.97;;;1.90;;
17259;SDS011;8746;49.230;9.220;2022-11-02T16:30:20;9.83;;;3.80;;
17259;SDS011;8746;49.230;9.220;2022-11-02T16:32:46;20.33;;;9.37;;
17259;SDS011;8746;49.230;9.220;2022-11-02T16:35:18;16.20;;;9.67;;
17259;SDS011;8746;49.230;9.220;2022-11-02T16:37:46;20.10;;;13.03;;
17259;SDS011;8746;49.230;9.220;2022-11-02T16:40:16;18.70;;;10.07;;
17259;SDS011;8746;49.230;9.220;2022-11-02T16:42:44;20.30;;;9.10;;
17259;SDS011;8746;49.230;9.220;2022-11-02T16:45:29;18.80;;;10.77;;
17259;SDS011;8746;49.230;9.220;2022-11-02T16:47:55;17.93;;;7.87;;
17259;SDS011;8746;49.230;9.220;2022-11-02T16:50:22;9.37;;;4.83;;
17259;SDS011;8746;49.230;9.220;2022-11-02T16:52:52;3.97;;;2.60;;
17259;SDS011;8746;49.230;9.220;2022-11-02T16:58:04;6.80;;;4.20;;
17259;SDS011;8746;49.230;9.220;2022-11-02T17:00:33;7.83;;;3.00;;
17259;SDS011;8746;49.230;9.220;2022-11-02T17:03:05;4.20;;;2.30;;
17259;SDS011;8746;49.230;9.220;2022-11-02T17:05:32;4.50;;;2.03;;
17259;SDS011;8746;49.230;9.220;2022-11-02T17:07:59;6.00;;;2.63;;
17259;SDS011;8746;49.230;9.220;2022-11-02T17:10:33;3.40;;;2.10;;
17259;SDS011;8746;49.230;9.220;2022-11-02T17:13:00;4.77;;;2.77;;
17259;SDS011;8746;49.230;9.220;2022-11-02T17:15:29;4.00;;;3.13;;
17259;SDS011;8746;49.230;9.220;2022-11-02T17:20:33;5.10;;;2.37;;
17259;SDS011;8746;49.230;9.220;2022-11-02T17:23:02;5.27;;;1.73;;
17259;SDS011;8746;49.230;9.220;2022-11-02T17:27:58;10.03;;;7.13;;
17259;SDS011;8746;49.230;9.220;2022-11-02T17:32:54;16.60;;;12.10;;
17259;SDS011;8746;49.230;9.220;2022-11-02T17:35:20;14.00;;;7.90;;
17259;SDS011;8746;49.230;9.220;2022-11-02T17:37:46;10.30;;;6.00;;
17259;SDS011;8746;49.230;9.220;2022-11-02T17:40:13;9.13;;;5.00;;
17259;SDS011;8746;49.230;9.220;2022-11-02T17:42:38;8.13;;;5.10;;
17259;SDS011;8746;49.230;9.220;2022-11-02T17:47:58;8.20;;;4.90;;
17259;SDS011;8746;49.230;9.220;2022-11-02T17:50:27;6.37;;;3.70;;
17259;SDS011;8746;49.230;9.220;2022-11-02T17:52:55;6.73;;;4.13;;
17259;SDS011;8746;49.230;9.220;2022-11-02T17:55:25;6.03;;;3.80;;
17259;SDS011;8746;49.230;9.220;2022-11-02T17:57:53;4.93;;;3.10;;
17259;SDS011;8746;49.230;9.220;2022-11-02T18:00:22;4.73;;;3.10;;
17259;SDS011;8746;49.230;9.220;2022-11-02T18:02:49;7.17;;;4.70;;
17259;SDS011;8746;49.230;9.220;2022-11-02T18:07:52;6.33;;;4.37;;
17259;SDS011;8746;49.230;9.220;2022-11-02T18:10:19;5.97;;;4.10;;
17259;SDS011;8746;49.230;9.220;2022-11-02T18:12:46;4.27;;;3.00;;
17259;SDS011;8746;49.230;9.220;2022-11-02T18:15:16;4.40;;;2.77;;